Time;durP1;ratioP1;P1;durP2;ratioP2;P2;SDS_P1;SDS_P2;PMS_P1;PMS_P2;Temp;Humidity;BMP_temperature;BMP_pressure;BME280_temperature;BME280_humidity;BME280_pressure;Samples;Min_cycle;Max_cycle;Signal;HPM_P1;HPM_P2
2022/07/27 00:03:31;;;;;;;7.27;2.40;;;;;;;23.78;39.75;97849.88;8125317;29;20233;-73
2022/07/27 00:07:35;;;;;;;4.77;2.53;;;;;;;23.72;40.18;97853.13;8125901;29;20253;-73
2022/07/27 00:11:38;;;;;;;6.83;2.80;;;;;;;23.66;39.77;97851.06;8125643;29;20236;-73
2022/07/27 00:15:42;;;;;;;7.40;2.90;;;;;;;23.56;40.27;97851.16;8125818;29;20233;-73
2022/07/27 00:19:45;;;;;;;6.50;2.70;;;;;;;23.55;40.46;97840.75;8125575;29;20539;-73
2022/07/27 00:23:50;;;;;;;4.97;2.53;;;;;;;23.56;40.75;97845.88;8124834;29;20243;-73
2022/07/27 00:27:52;;;;;;;5.13;2.50;;;;;;;23.48;40.53;97848.47;8125142;29;20237;-72
2022/07/27 00:31:55;;;;;;;5.87;2.40;;;;;;;23.43;40.90;97862.13;8125180;29;20353;-73
2022/07/27 00:36:01;;;;;;;4.80;2.70;;;;;;;23.37;41.04;97857.44;8125245;29;20246;-73
2022/07/27 00:40:07;;;;;;;4.20;2.47;;;;;;;23.43;40.85;97861.28;8125047;29;20232;-73
2022/07/27 00:44:11;;;;;;;5.50;2.50;;;;;;;23.27;40.95;97863.81;8124700;29;20531;-73
2022/07/27 00:48:13;;;;;;;4.33;2.70;;;;;;;23.26;41.01;97870.88;8124728;29;20237;-73
2022/07/27 00:52:17;;;;;;;5.40;2.70;;;;;;;23.20;41.32;97861.75;8124836;29;20239;-73
2022/07/27 00:56:21;;;;;;;9.63;2.63;;;;;;;23.10;41.70;97862.81;8124671;29;20237;-72
2022/07/27 01:00:24;;;;;;;4.13;2.50;;;;;;;23.05;41.71;97868.53;8124689;29;20232;-73
2022/07/27 01:04:27;;;;;;;5.33;2.53;;;;;;;23.07;41.58;97865.75;8124431;29;20519;-73
2022/07/27 01:08:32;;;;;;;6.53;2.57;;;;;;;22.90;42.11;97860.25;8124154;29;20302;-73
2022/07/27 01:12:36;;;;;;;3.70;2.57;;;;;;;22.89;42.01;97865.72;8123337;29;20234;-73
2022/07/27 01:16:39;;;;;;;5.60;2.67;;;;;;;22.84;41.86;97872.22;8124015;29;20236;-73
2022/07/27 01:20:42;;;;;;;3.93;2.37;;;;;;;22.78;42.01;97870.19;8123774;29;20229;-73
2022/07/27 01:24:46;;;;;;;4.27;2.60;;;;;;;22.81;42.38;97867.25;8123707;29;20247;-73
2022/07/27 01:28:49;;;;;;;7.73;2.77;;;;;;;22.76;42.22;97873.97;8123345;29;20229;-73
2022/07/27 01:32:52;;;;;;;16.73;3.37;;;;;;;22.67;42.51;97866.94;8123611;29;20232;-72
2022/07/27 01:36:55;;;;;;;5.20;2.87;;;;;;;22.58;42.68;97855.44;8123559;29;20429;-72
2022/07/27 01:40:59;;;;;;;3.93;2.70;;;;;;;22.53;42.79;97862.97;8123592;29;20244;-73
2022/07/27 01:45:02;;;;;;;6.40;2.97;;;;;;;22.40;42.56;97863.28;8123420;29;20240;-72
2022/07/27 01:49:05;;;;;;;6.97;3.00;;;;;;;22.29;43.00;97861.66;8123368;29;20240;-73
2022/07/27 01:53:08;;;;;;;4.10;3.17;;;;;;;22.28;43.26;97861.84;8123377;29;20291;-73
2022/07/27 01:57:14;;;;;;;5.27;2.80;;;;;;;22.24;43.42;97856.81;8123311;29;20245;-73
2022/07/27 02:01:17;;;;;;;6.03;2.90;;;;;;;22.12;44.01;97857.13;8123292;29;20237;-73
2022/07/27 02:05:20;;;;;;;4.30;3.00;;;;;;;22.11;43.85;97853.66;8123226;29;20244;-73
2022/07/27 02:09:24;;;;;;;5.77;3.57;;;;;;;22.01;44.29;97842.31;8123507;29;20243;-73
2022/07/27 02:13:28;;;;;;;7.60;3.30;;;;;;;22.02;44.41;97841.31;8123304;29;20230;-73
2022/07/27 02:17:31;;;;;;;4.73;3.00;;;;;;;22.09;44.29;97837.16;8123075;29;20260;-73
2022/07/27 02:21:36;;;;;;;3.77;3.07;;;;;;;21.94;44.50;97828.84;8123153;29;20285;-73
2022/07/27 02:25:39;;;;;;;3.70;2.83;;;;;;;22.05;44.39;97820.78;8128929;29;20237;-73
2022/07/27 02:29:43;;;;;;;5.83;2.97;;;;;;;22.08;44.85;97826.75;8128829;29;20403;-73
2022/07/27 02:33:46;;;;;;;4.63;2.80;;;;;;;22.10;44.47;97822.16;8128938;29;20244;-73
2022/07/27 02:37:49;;;;;;;3.80;2.77;;;;;;;22.09;44.24;97826.59;8128094;29;20539;-72
2022/07/27 02:41:52;;;;;;;4.97;3.13;;;;;;;22.10;44.71;97817.69;8128468;29;20231;-73
2022/07/27 02:45:56;;;;;;;4.63;2.73;;;;;;;22.08;44.90;97813.56;8128424;29;20250;-72
2022/07/27 02:49:59;;;;;;;5.53;3.10;;;;;;;22.05;44.46;97810.22;8128459;29;20240;-73
2022/07/27 02:54:02;;;;;;;3.67;2.73;;;;;;;21.97;44.80;97810.13;8127898;29;20260;-72
2022/07/27 02:58:05;;;;;;;4.43;3.13;;;;;;;22.02;45.02;97814.97;8128295;29;20233;-73
2022/07/27 03:02:09;;;;;;;5.60;2.90;;;;;;;22.01;45.08;97824.69;8127932;29;20231;-73
2022/07/27 03:06:12;;;;;;;6.13;3.07;;;;;;;21.97;45.17;97827.72;8127835;29;20236;-73
2022/07/27 03:10:15;;;;;;;9.37;3.17;;;;;;;21.87;45.26;97827.75;8127498;29;20542;-73
2022/07/27 03:14:18;;;;;;;4.87;2.90;;;;;;;21.83;45.20;97834.31;8127664;29;20231;-73
2022/07/27 03:18:22;;;;;;;4.10;2.73;;;;;;;21.78;45.29;97832.09;8127491;29;20411;-73
2022/07/27 03:22:29;;;;;;;5.40;2.97;;;;;;;21.81;45.59;97830.97;8127565;29;20233;-72
2022/07/27 03:26:32;;;;;;;4.87;2.90;;;;;;;21.82;45.73;97835.28;8127101;29;20248;-73
2022/07/27 03:30:35;;;;;;;4.60;2.93;;;;;;;21.76;45.50;97836.69;8127086;29;20240;-72
2022/07/27 03:34:40;;;;;;;6.10;2.87;;;;;;;21.75;45.96;97837.66;8126093;29;20239;-73
2022/07/27 03:38:42;;;;;;;4.67;3.17;;;;;;;21.75;46.31;97844.72;8126809;29;20245;-73
2022/07/27 03:42:45;;;;;;;4.73;2.90;;;;;;;21.79;46.38;97838.19;8126816;29;20540;-73
2022/07/27 03:46:48;;;;;;;5.83;3.10;;;;;;;21.59;46.68;97838.22;8118430;29;20237;-72
2022/07/27 03:50:52;;;;;;;6.10;2.70;;;;;;;21.74;46.56;97841.28;8126609;29;20248;-72
2022/07/27 03:54:56;;;;;;;5.70;3.17;;;;;;;21.77;46.56;97837.50;8126356;29;20265;-72
2022/07/27 03:58:58;;;;;;;7.33;3.30;;;;;;;21.64;46.68;97840.44;8126300;29;20247;-73
2022/07/27 04:03:01;;;;;;;3.87;2.90;;;;;;;21.72;46.57;97858.19;8126293;29;20232;-73
2022/07/27 04:07:06;;;;;;;5.53;3.13;;;;;;;21.81;46.61;97860.78;8125956;29;20240;-72
2022/07/27 04:11:09;;;;;;;3.83;2.60;;;;;;;21.82;46.92;97859.84;8125908;29;20238;-73
2022/07/27 04:15:15;;;;;;;5.20;2.23;;;;;;;21.89;47.01;97859.25;8125902;29;20232;-73
2022/07/27 04:19:18;;;;;;;5.17;2.40;;;;;;;21.93;47.21;97864.09;8125704;29;20553;-73
2022/07/27 04:23:22;;;;;;;5.53;2.50;;;;;;;21.93;47.53;97866.72;8125445;29;20239;-72
2022/07/27 04:27:25;;;;;;;3.33;2.50;;;;;;;22.02;47.34;97872.97;8125110;29;20236;-73
2022/07/27 04:31:27;;;;;;;6.67;2.57;;;;;;;21.97;47.77;97862.84;8125296;29;20239;-73
2022/07/27 04:35:30;;;;;;;4.17;2.10;;;;;;;22.02;47.86;97876.44;8125070;29;20428;-73
2022/07/27 04:39:34;;;;;;;6.87;2.73;;;;;;;22.05;48.02;97876.16;8124709;29;20437;-72
2022/07/27 04:43:37;;;;;;;4.53;2.20;;;;;;;21.93;48.61;97881.72;8124582;29;20240;-73
2022/07/27 04:47:40;;;;;;;4.83;2.40;;;;;;;21.94;48.74;97883.41;8124413;29;20312;-74
2022/07/27 04:51:43;;;;;;;3.23;2.30;;;;;;;22.16;48.29;97887.50;8124725;29;20235;-73
2022/07/27 04:55:48;;;;;;;4.33;2.30;;;;;;;22.16;48.46;97890.13;8124273;29;20242;-73
2022/07/27 04:59:51;;;;;;;3.20;2.00;;;;;;;22.24;48.27;97891.09;8124021;29;20271;-72
2022/07/27 05:03:54;;;;;;;5.13;2.30;;;;;;;22.36;48.10;97891.78;8124396;29;20239;-73
2022/07/27 05:07:57;;;;;;;2.93;2.10;;;;;;;22.40;47.84;97879.94;8124203;29;20240;-73
2022/07/27 05:12:01;;;;;;;4.07;2.03;;;;;;;22.20;48.19;97871.25;8124044;29;20240;-73
2022/07/27 05:16:04;;;;;;;2.63;2.07;;;;;;;22.17;48.89;97882.09;8123985;29;20244;-73
2022/07/27 05:20:08;;;;;;;2.90;1.87;;;;;;;22.24;48.54;97888.44;8123838;29;20267;-73
2022/07/27 05:24:11;;;;;;;7.63;2.13;;;;;;;22.42;48.26;97899.09;8123628;29;20442;-73
2022/07/27 05:28:16;;;;;;;5.70;2.00;;;;;;;22.47;48.63;97896.03;8123887;29;20415;-73
2022/07/27 05:32:19;;;;;;;4.17;1.93;;;;;;;22.44;48.46;97902.44;8123612;29;20240;-73
2022/07/27 05:36:22;;;;;;;12.90;2.43;;;;;;;22.49;48.56;97904.66;8123603;29;20240;-73
2022/07/27 05:40:25;;;;;;;4.53;2.00;;;;;;;22.74;48.45;97905.78;8123558;29;20232;-73
2022/07/27 05:44:29;;;;;;;8.57;2.23;;;;;;;22.94;47.93;97918.88;8123217;29;20237;-73
2022/07/27 05:48:32;;;;;;;6.00;2.17;;;;;;;;;;8123059;29;20243;-73
2022/07/27 05:52:35;;;;;;;3.30;1.60;;;;;;;23.25;47.40;97916.78;8123586;29;20232;-74
2022/07/27 05:56:37;;;;;;;6.73;1.73;;;;;;;23.32;47.30;97915.22;8123360;29;20236;-74
2022/07/27 06:00:42;;;;;;;3.13;1.70;;;;;;;23.34;46.61;97915.03;8129732;29;20237;-74
2022/07/27 06:04:45;;;;;;;2.80;1.60;;;;;;;23.45;46.64;97909.53;8129620;29;20435;-73
2022/07/27 06:08:48;;;;;;;3.17;2.13;;;;;;;23.18;46.85;97926.28;8129150;29;20229;-73
2022/07/27 06:12:50;;;;;;;4.10;1.47;;;;;;;23.22;46.70;97923.19;8128853;29;20230;-74
2022/07/27 06:16:54;;;;;;;6.40;1.90;;;;;;;23.43;46.11;97919.44;8129356;29;20233;-72
2022/07/27 06:21:00;;;;;;;6.33;1.73;;;;;;;23.68;45.85;97915.19;8128981;29;20245;-73
2022/07/27 06:25:04;;;;;;;4.87;1.70;;;;;;;23.85;45.25;97912.72;8128860;29;20244;-74
2022/07/27 06:29:07;;;;;;;3.27;1.90;;;;;;;23.58;45.99;97912.63;8128317;29;23323;-73
2022/07/27 06:33:13;;;;;;;2.37;1.57;;;;;;;23.49;45.94;97918.81;8128776;29;20416;-74
2022/07/27 06:37:16;;;;;;;4.60;1.70;;;;;;;23.70;45.71;97918.50;8128865;29;20423;-74
2022/07/27 06:41:22;;;;;;;4.83;2.00;;;;;;;23.60;45.63;97910.66;8128229;29;20247;-74
2022/07/27 06:45:25;;;;;;;5.90;1.90;;;;;;;23.42;46.13;97918.59;8128287;29;20240;-73
2022/07/27 06:49:29;;;;;;;4.13;2.00;;;;;;;23.54;45.51;97916.56;8128127;29;20273;-74
2022/07/27 06:53:32;;;;;;;2.37;1.87;;;;;;;23.28;45.95;97929.69;8128126;29;20225;-73
2022/07/27 06:57:38;;;;;;;2.70;1.60;;;;;;;23.93;44.74;97920.72;8127971;29;20224;-73
2022/07/27 07:01:42;;;;;;;3.20;1.60;;;;;;;24.53;43.94;97919.97;8127845;29;20248;-73
2022/07/27 07:05:51;;;;;;;5.43;1.80;;;;;;;24.87;43.48;97919.97;8127363;29;20292;-73
2022/07/27 07:09:54;;;;;;;6.13;1.87;;;;;;;24.85;43.05;97921.13;8127429;29;20233;-73
2022/07/27 07:13:57;;;;;;;3.80;2.00;;;;;;;25.11;42.23;97924.53;8127321;29;20233;-73
2022/07/27 07:18:01;;;;;;;2.23;1.50;;;;;;;24.97;42.75;97920.66;8127639;29;20240;-73
2022/07/27 07:22:05;;;;;;;4.03;1.60;;;;;;;25.03;42.65;97923.66;8127141;29;20245;-73
2022/07/27 07:26:08;;;;;;;3.73;1.70;;;;;;;25.16;42.42;97926.69;8127075;29;20233;-72
2022/07/27 07:30:12;;;;;;;3.80;1.67;;;;;;;25.06;43.16;97926.00;8126940;29;20241;-74
2022/07/27 07:34:15;;;;;;;6.53;1.70;;;;;;;25.06;42.69;97915.41;8127094;29;20232;-73
2022/07/27 07:38:19;;;;;;;6.67;1.53;;;;;;;25.06;42.81;97912.75;8127007;29;20240;-73
2022/07/27 07:42:22;;;;;;;4.97;2.27;;;;;;;25.29;41.72;97913.81;8126943;29;20243;-73
2022/07/27 07:46:26;;;;;;;3.33;1.60;;;;;;;25.85;40.59;97915.84;8126574;29;20235;-73
2022/07/27 07:50:28;;;;;;;4.13;1.97;;;;;;;26.34;39.69;97910.53;8126858;29;20262;-72
2022/07/27 07:54:33;;;;;;;3.37;1.73;;;;;;;26.81;39.00;97912.41;8126531;29;20231;-74
2022/07/27 07:58:36;;;;;;;7.87;1.53;;;;;;;26.73;39.67;97907.09;8126981;29;20530;-72
2022/07/27 08:02:44;;;;;;;10.77;1.77;;;;;;;27.16;39.00;97910.22;8126317;29;20241;-73
2022/07/27 08:06:47;;;;;;;3.47;1.67;;;;;;;27.48;37.68;97919.03;8110622;29;20245;-73
2022/07/27 08:10:52;;;;;;;4.30;1.53;;;;;;;27.68;37.45;97909.56;8125738;29;20225;-72
2022/07/27 08:14:54;;;;;;;31.43;3.43;;;;;;;27.98;37.27;97911.50;8125776;29;20422;-72
2022/07/27 08:18:57;;;;;;;8.83;2.20;;;;;;;28.11;37.74;97906.41;8125722;29;20235;-74
2022/07/27 08:23:00;;;;;;;2.30;1.70;;;;;;;28.21;36.88;97912.28;8125181;29;20238;-73
2022/07/27 08:27:05;;;;;;;3.47;1.50;;;;;;;27.46;38.11;97911.22;8127102;29;20239;-74
2022/07/27 08:31:08;;;;;;;9.83;2.00;;;;;;;27.77;36.93;97912.97;8128299;29;20243;-73
2022/07/27 08:35:21;;;;;;;2.33;1.63;;;;;;;28.19;36.33;97914.28;8111097;29;20228;-74
2022/07/27 08:39:24;;;;;;;6.13;1.70;;;;;;;28.41;35.96;97912.59;8094404;29;20483;-73
2022/07/27 08:43:49;;;;;;;3.13;1.43;;;;;;;28.34;36.33;97922.31;8064423;29;20408;-73
2022/07/27 08:47:52;;;;;;;7.90;1.83;;;;;;;28.69;35.69;97916.47;8124822;29;20235;-73
2022/07/27 08:51:55;;;;;;;6.83;1.97;;;;;;;28.39;35.72;97917.28;8124576;29;20433;-75
2022/07/27 08:55:58;;;;;;;4.90;1.70;;;;;;;28.97;35.48;97922.75;8123267;29;20247;-73
2022/07/27 09:00:02;;;;;;;4.73;1.50;;;;;;;28.32;36.59;97929.66;8094808;29;20248;-73
2022/07/27 09:04:08;;;;;;;4.70;1.50;;;;;;;29.12;34.73;97919.25;8062544;29;20248;-73
2022/07/27 09:08:13;;;;;;;7.13;1.60;;;;;;;29.11;34.33;97925.59;8092184;29;20454;-73
2022/07/27 09:12:16;;;;;;;6.47;1.90;;;;;;;28.13;36.59;97925.69;8093010;29;20243;-74
2022/07/27 09:16:29;;;;;;;6.83;1.60;;;;;;;29.26;34.20;97936.25;8092912;29;20252;-74
2022/07/27 09:21:09;;;;;;;6.83;1.50;;;;;;;29.23;33.84;97932.94;8092171;29;20240;-73
2022/07/27 09:25:14;;;;;;;2.73;1.33;;;;;;;28.55;34.95;97928.78;8092984;29;20240;-74
2022/07/27 09:29:17;;;;;;;6.27;1.70;;;;;;;28.18;35.39;97938.44;8092798;29;20237;-74
2022/07/27 09:33:21;;;;;;;4.30;1.60;;;;;;;27.61;36.08;97943.22;8092120;29;20508;-74
2022/07/27 09:37:25;;;;;;;6.17;2.07;;;;;;;27.60;36.34;97944.19;8092682;29;20241;-75
2022/07/27 09:41:39;;;;;;;6.83;1.80;;;;;;;27.78;36.00;97946.56;8092463;29;20236;-74
2022/07/27 09:45:43;;;;;;;4.03;1.87;;;;;;;29.10;33.68;97937.28;8091854;29;20596;-74
2022/07/27 09:49:55;;;;;;;4.33;1.53;;;;;;;29.10;32.75;97939.94;8100094;29;20550;-74
2022/07/27 09:54:07;;;;;;;3.93;1.70;;;;;;;28.54;34.22;97940.44;8092414;29;20238;-74
2022/07/27 09:58:10;;;;;;;4.00;1.50;;;;;;;28.26;34.56;97941.03;8092058;29;20238;-74
2022/07/27 10:02:17;;;;;;;4.10;1.63;;;;;;;27.98;34.88;97941.59;8091925;29;20300;-73
2022/07/27 10:06:22;;;;;;;4.03;2.00;;;;;;;28.56;34.44;97938.41;8061609;29;20354;-73
2022/07/27 10:10:27;;;;;;;4.10;1.43;;;;;;;28.49;33.92;97940.97;8061360;29;20241;-74
2022/07/27 10:14:30;;;;;;;3.97;1.80;;;;;;;28.73;33.75;97936.38;8061143;29;20576;-74
2022/07/27 10:18:41;;;;;;;8.80;2.00;;;;;;;28.38;34.30;97936.09;8061232;29;20230;-74
2022/07/27 10:22:52;;;;;;;3.87;1.50;;;;;;;29.11;32.93;97941.59;8091071;29;20443;-73
2022/07/27 10:26:55;;;;;;;4.07;1.50;;;;;;;28.81;33.70;97941.66;8091572;29;20269;-74
2022/07/27 10:31:16;;;;;;;4.10;1.53;;;;;;;29.29;32.64;97950.03;8091363;29;20245;-72
2022/07/27 10:35:32;;;;;;;2.53;1.50;;;;;;;30.13;30.94;97948.63;8091351;29;20540;-73
2022/07/27 10:39:38;;;;;;;4.63;1.73;;;;;;;29.76;30.70;97953.22;8091527;29;20242;-73
2022/07/27 10:43:41;;;;;;;4.67;1.63;;;;;;;30.20;30.16;97950.31;8093767;29;20240;-73
2022/07/27 10:47:45;;;;;;;4.73;1.50;;;;;;;29.75;31.23;97955.06;8127941;29;20236;-73
2022/07/27 10:51:49;;;;;;;3.50;1.50;;;;;;;28.87;32.41;97956.88;8127714;29;20230;-73
2022/07/27 10:55:53;;;;;;;3.67;1.50;;;;;;;30.13;30.36;97953.94;8127933;29;20237;-74
2022/07/27 10:59:56;;;;;;;4.10;1.60;;;;;;;29.85;31.07;97953.91;8127433;29;20236;-73
2022/07/27 11:04:13;;;;;;;3.27;1.73;;;;;;;30.08;30.32;97956.38;8127404;29;20235;-73
2022/07/27 11:08:16;;;;;;;5.13;1.60;;;;;;;30.14;30.59;97958.25;8119981;29;20254;-75
2022/07/27 11:12:42;;;;;;;4.63;1.60;;;;;;;30.11;29.77;97956.00;8105994;29;20235;-75
2022/07/27 11:16:44;;;;;;;4.67;1.93;;;;;;;29.29;31.41;97949.22;8110714;29;20247;-73
2022/07/27 11:21:16;;;;;;;5.40;2.00;;;;;;;29.67;31.02;97951.69;8095201;29;20306;-74
2022/07/27 11:25:27;;;;;;;5.43;1.90;;;;;;;29.30;31.64;97948.19;8117795;29;20558;-74
2022/07/27 11:29:35;;;;;;;5.37;1.80;;;;;;;30.19;29.76;97943.31;8126870;29;20297;-73
2022/07/27 11:33:52;;;;;;;5.63;1.90;;;;;;;29.98;30.47;97946.03;8115345;29;20286;-74
2022/07/27 11:38:00;;;;;;;6.23;2.40;;;;;;;29.07;31.38;97943.78;8103456;29;20245;-74
2022/07/27 11:42:03;;;;;;;7.53;2.23;;;;;;;28.31;32.62;97941.31;8107966;29;20274;-74
2022/07/27 11:46:18;;;;;;;9.20;2.20;;;;;;;28.24;32.59;97946.53;8120837;29;20426;-72
2022/07/27 11:50:21;;;;;;;6.17;1.90;;;;;;;28.33;32.27;97943.78;8126120;29;20286;-72
2022/07/27 11:54:24;;;;;;;2.87;1.80;;;;;;;28.20;32.52;97942.59;8125600;29;20523;-75
2022/07/27 11:58:28;;;;;;;3.47;1.77;;;;;;;28.22;32.76;97942.41;8125904;29;20233;-75
2022/07/27 12:02:32;;;;;;;4.17;1.83;;;;;;;29.24;31.66;97947.09;8122690;29;20232;-75
2022/07/27 12:06:36;;;;;;;8.33;1.70;;;;;;;29.78;30.36;97944.00;8122506;29;20561;-75
2022/07/27 12:10:39;;;;;;;6.33;2.03;;;;;;;29.76;29.93;97955.91;8125500;29;20438;-73
2022/07/27 12:14:44;;;;;;;3.83;1.60;;;;;;;30.59;29.05;97942.78;8125263;29;20527;-75
2022/07/27 12:18:49;;;;;;;4.80;1.73;;;;;;;30.47;28.41;97945.19;8116958;29;20225;-74
2022/07/27 12:22:53;;;;;;;3.80;1.70;;;;;;;31.06;27.41;97945.72;8107088;29;20242;-74
2022/07/27 12:27:04;;;;;;;8.87;1.93;;;;;;;30.42;27.98;97933.44;8117639;29;20251;-74
2022/07/27 12:31:17;;;;;;;3.40;1.70;;;;;;;30.01;28.34;97940.31;8124785;29;20240;-74
2022/07/27 12:35:27;;;;;;;5.17;2.00;;;;;;;29.60;28.82;97946.25;8124682;29;20229;-74
2022/07/27 12:39:38;;;;;;;4.37;1.60;;;;;;;30.13;28.41;97941.41;8124365;29;20279;-74
2022/07/27 12:43:40;;;;;;;3.73;1.73;;;;;;;30.56;27.61;97932.50;8124314;29;20476;-74
2022/07/27 12:47:43;;;;;;;6.10;1.67;;;;;;;30.68;27.39;97940.78;8124278;29;20232;-73
2022/07/27 12:51:50;;;;;;;5.80;1.90;;;;;;;30.96;26.62;97935.41;8124365;29;20234;-74
2022/07/27 12:55:54;;;;;;;4.00;1.50;;;;;;;31.02;26.76;97929.25;8100158;29;20237;-73
2022/07/27 12:59:57;;;;;;;5.20;1.80;;;;;;;31.38;26.34;97928.97;8093312;29;20245;-73
2022/07/27 13:04:00;;;;;;;4.27;1.60;;;;;;;30.14;27.62;97929.72;8093000;29;20249;-73
2022/07/27 13:08:05;;;;;;;3.37;1.40;;;;;;;31.10;26.36;97918.38;8092651;29;20244;-73
2022/07/27 13:12:08;;;;;;;6.20;1.70;;;;;;;31.12;26.15;97921.66;8093136;29;20234;-74
2022/07/27 13:16:11;;;;;;;6.27;1.80;;;;;;;31.24;25.88;97919.22;8092814;29;20231;-74
2022/07/27 13:20:15;;;;;;;5.20;1.80;;;;;;;31.36;26.62;97919.50;8092999;29;20234;-74
2022/07/27 13:24:20;;;;;;;5.47;1.60;;;;;;;30.71;26.63;97922.53;8092584;29;20239;-75
2022/07/27 13:28:23;;;;;;;5.13;1.43;;;;;;;31.16;26.16;97919.44;8092796;29;20235;-75
2022/07/27 13:32:26;;;;;;;7.97;1.70;;;;;;;31.37;25.88;97921.94;8092711;29;20240;-74
2022/07/27 13:36:29;;;;;;;2.77;1.43;;;;;;;31.74;25.58;97921.66;8092405;29;20242;-75
2022/07/27 13:40:33;;;;;;;6.37;1.87;;;;;;;30.85;25.73;97919.91;8092287;29;20406;-75
2022/07/27 13:44:36;;;;;;;5.50;1.63;;;;;;;30.04;26.69;97926.56;8100079;29;20242;-74
2022/07/27 13:48:59;;;;;;;4.93;2.13;;;;;;;29.18;28.33;97923.88;8122721;29;20244;-75
2022/07/27 13:53:02;;;;;;;4.83;1.60;;;;;;;30.14;27.28;97924.41;8123138;29;20288;-74
2022/07/27 13:57:06;;;;;;;3.90;1.70;;;;;;;30.57;26.39;97926.94;8123100;29;20238;-75
2022/07/27 14:01:09;;;;;;;3.47;1.63;;;;;;;30.75;25.61;97928.28;8122755;29;20233;-75
2022/07/27 14:05:12;;;;;;;4.97;1.60;;;;;;;30.42;25.58;97922.75;8122915;29;20246;-75
2022/07/27 14:09:16;;;;;;;5.53;1.73;;;;;;;30.07;25.52;97920.03;8122844;29;20239;-75
2022/07/27 14:13:21;;;;;;;4.83;1.60;;;;;;;30.60;25.96;97915.06;8122744;29;20239;-75
2022/07/27 14:17:24;;;;;;;4.50;1.50;;;;;;;30.69;25.19;97905.84;8122662;29;20420;-74
2022/07/27 14:21:27;;;;;;;2.10;1.07;;;;;;;30.64;25.76;97905.63;8128678;29;20447;-75
2022/07/27 14:25:30;;;;;;;3.53;1.37;;;;;;;30.98;24.31;97910.13;8128913;29;20557;-75
2022/07/27 14:29:38;;;;;;;4.10;1.30;;;;;;;30.31;25.44;97908.91;8128787;29;20245;-75
2022/07/27 14:33:40;;;;;;;4.17;1.40;;;;;;;30.49;25.77;97912.94;8128633;29;20229;-74
2022/07/27 14:37:43;;;;;;;4.93;1.50;;;;;;;29.55;26.61;97912.16;8128424;29;20560;-75
2022/07/27 14:41:46;;;;;;;2.77;1.40;;;;;;;30.06;26.58;97913.84;8128266;29;20245;-75
2022/07/27 14:45:50;;;;;;;4.57;1.63;;;;;;;30.19;25.87;97916.59;8127557;29;20401;-74
2022/07/27 14:49:53;;;;;;;6.50;1.53;;;;;;;30.25;25.98;97912.31;8128103;29;20237;-74
2022/07/27 14:53:56;;;;;;;4.90;1.60;;;;;;;30.34;25.76;97913.03;8111448;29;20540;-73
2022/07/27 14:57:59;;;;;;;5.20;1.40;;;;;;;29.44;26.92;97899.31;8127912;29;20238;-73
2022/07/27 15:02:04;;;;;;;3.67;1.53;;;;;;;29.31;26.24;97900.00;8127557;29;20241;-73
2022/07/27 15:06:07;;;;;;;3.40;1.73;;;;;;;29.34;26.17;97901.47;8127277;29;20253;-74
2022/07/27 15:10:10;;;;;;;2.73;1.40;;;;;;;28.97;26.72;97898.78;8127196;29;20226;-74
2022/07/27 15:14:13;;;;;;;4.17;1.50;;;;;;;28.63;27.01;97894.06;8127320;29;20422;-74
2022/07/27 15:18:18;;;;;;;4.70;1.50;;;;;;;28.72;26.63;97890.28;8127260;29;20645;-74
2022/07/27 15:22:21;;;;;;;5.43;1.70;;;;;;;29.42;25.88;97890.69;8126993;29;20247;-74
2022/07/27 15:26:26;;;;;;;3.30;1.40;;;;;;;28.82;26.87;97901.47;8127055;29;20245;-74
2022/07/27 15:30:29;;;;;;;2.47;1.40;;;;;;;28.28;27.37;97891.91;8125542;29;20252;-74
2022/07/27 15:34:41;;;;;;;7.00;1.50;;;;;;;28.62;27.24;97887.09;8126804;29;20458;-73
2022/07/27 15:38:43;;;;;;;3.27;1.40;;;;;;;28.44;27.19;97882.09;8126729;29;20249;-74
2022/07/27 15:42:46;;;;;;;4.30;1.60;;;;;;;28.46;26.92;97885.38;8126099;29;20238;-74
2022/07/27 15:46:49;;;;;;;5.90;1.50;;;;;;;28.61;26.67;97888.91;8118598;29;20238;-74
2022/07/27 15:50:53;;;;;;;4.10;1.53;;;;;;;28.68;26.75;97880.19;8095379;29;20236;-73
2022/07/27 15:54:56;;;;;;;2.70;1.33;;;;;;;28.66;27.06;97877.72;8095285;29;20278;-74
2022/07/27 15:58:59;;;;;;;4.63;1.80;;;;;;;28.15;27.07;97881.06;8095305;29;20238;-74
2022/07/27 16:03:03;;;;;;;2.67;1.43;;;;;;;28.44;26.59;97874.09;8094813;29;20244;-71
2022/07/27 16:07:08;;;;;;;3.73;1.53;;;;;;;28.42;26.39;97881.44;8101318;29;20574;-74
2022/07/27 16:11:11;;;;;;;6.47;1.43;;;;;;;28.22;26.45;97881.19;8097784;29;20350;-74
2022/07/27 16:15:14;;;;;;;5.67;1.63;;;;;;;28.36;27.02;97876.84;8104035;29;20243;-74
2022/07/27 16:19:17;;;;;;;3.37;1.60;;;;;;;28.35;26.80;97877.84;8125812;29;20235;-74
2022/07/27 16:23:23;;;;;;;7.03;1.77;;;;;;;28.30;26.56;97881.09;8118774;29;20244;-75
2022/07/27 16:27:34;;;;;;;3.17;1.53;;;;;;;28.31;26.82;97874.75;8093972;29;20280;-74
2022/07/27 16:31:37;;;;;;;3.97;1.57;;;;;;;28.12;26.63;97876.13;8094712;29;20297;-75
2022/07/27 16:35:41;;;;;;;2.60;1.30;;;;;;;28.20;26.85;97875.22;8089635;29;20240;-75
2022/07/27 16:39:47;;;;;;;6.07;1.40;;;;;;;27.82;27.02;97883.19;8093993;29;20243;-83
2022/07/27 16:43:50;;;;;;;3.90;1.70;;;;;;;27.84;26.75;97874.03;8092880;29;20240;-77
2022/07/27 16:47:53;;;;;;;5.47;2.20;;;;;;;27.87;27.04;97873.66;8093807;29;20437;-76
2022/07/27 16:51:56;;;;;;;12.07;3.90;;;;;;;27.72;26.95;97875.47;8093308;29;20240;-77
2022/07/27 16:56:00;;;;;;;21.77;6.63;;;;;;;27.75;27.40;97866.28;8093530;29;20248;-75
2022/07/27 17:00:05;;;;;;;16.57;4.70;;;;;;;27.61;27.15;97870.56;8093285;29;20255;-76
2022/07/27 17:04:08;;;;;;;16.00;5.37;;;;;;;27.43;27.76;97871.69;8092924;29;20385;-74
2022/07/27 17:08:11;;;;;;;9.37;3.20;;;;;;;27.34;27.21;97878.09;8093131;29;20243;-74
2022/07/27 17:12:15;;;;;;;11.10;3.27;;;;;;;27.28;27.79;97876.97;8093139;29;20406;-73
2022/07/27 17:16:21;;;;;;;9.63;2.97;;;;;;;27.31;27.87;97875.78;8092882;29;20284;-74
2022/07/27 17:20:24;;;;;;;5.53;1.93;;;;;;;27.12;27.78;97879.69;8093867;29;20245;-74
2022/07/27 17:24:37;;;;;;;5.60;1.60;;;;;;;27.02;28.01;97877.25;8092177;29;20343;-76
2022/07/27 17:28:41;;;;;;;4.17;1.37;;;;;;;26.84;28.00;97882.00;8092783;29;20285;-75
2022/07/27 17:32:44;;;;;;;4.73;1.50;;;;;;;26.95;28.21;97876.28;8092731;29;20233;-76
2022/07/27 17:36:49;;;;;;;6.23;1.80;;;;;;;26.97;28.48;97879.59;8092211;29;20419;-73
2022/07/27 17:40:52;;;;;;;6.07;1.87;;;;;;;26.75;28.26;97883.88;8092543;29;20276;-75
2022/07/27 17:44:56;;;;;;;7.77;1.90;;;;;;;26.75;28.80;97881.22;8092267;29;20246;-75
2022/07/27 17:48:59;;;;;;;3.73;1.60;;;;;;;26.81;29.09;97879.69;8092100;29;20254;-74
2022/07/27 17:53:02;;;;;;;5.13;1.67;;;;;;;26.85;29.41;97881.00;8093063;29;20247;-73
2022/07/27 17:57:04;;;;;;;9.87;1.90;;;;;;;26.80;29.25;97875.38;8098728;29;20235;-72
2022/07/27 18:01:09;;;;;;;8.60;1.90;;;;;;;26.63;29.25;97882.59;8098930;29;20262;-73
2022/07/27 18:05:12;;;;;;;9.23;2.00;;;;;;;26.62;29.22;97884.41;8098336;29;20237;-73
2022/07/27 18:09:15;;;;;;;25.87;3.27;;;;;;;26.55;29.57;97878.09;8098287;29;20246;-74
2022/07/27 18:13:19;;;;;;;28.57;3.50;;;;;;;26.53;29.59;97883.56;8098269;29;20553;-74
2022/07/27 18:17:23;;;;;;;4.53;1.70;;;;;;;26.38;29.63;97884.47;8098052;29;20515;-74
2022/07/27 18:21:26;;;;;;;13.87;2.20;;;;;;;26.23;29.86;97879.03;8098024;29;20564;-72
2022/07/27 18:25:29;;;;;;;4.77;1.80;;;;;;;26.22;29.92;97885.34;8097459;29;20243;-73
2022/07/27 18:29:32;;;;;;;7.73;1.87;;;;;;;26.10;30.26;97893.66;8097691;29;20242;-73
2022/07/27 18:33:36;;;;;;;6.10;1.83;;;;;;;25.99;30.39;97899.31;8097786;29;20243;-72
2022/07/27 18:37:39;;;;;;;6.70;2.03;;;;;;;25.91;30.52;97894.84;8097453;29;20254;-73
2022/07/27 18:41:42;;;;;;;5.83;1.90;;;;;;;25.81;30.69;97899.44;8097401;29;20529;-75
2022/07/27 18:45:45;;;;;;;4.10;1.90;;;;;;;25.81;31.01;97902.09;8097039;29;20540;-73
2022/07/27 18:49:49;;;;;;;6.40;2.03;;;;;;;25.63;30.93;97904.09;8128009;29;20239;-73
2022/07/27 18:53:52;;;;;;;4.80;1.70;;;;;;;25.59;31.05;97908.06;8128441;29;20228;-74
2022/07/27 18:57:55;;;;;;;12.80;2.00;;;;;;;25.54;31.23;97924.47;8128202;29;20228;-73
2022/07/27 19:01:58;;;;;;;8.70;2.40;;;;;;;25.50;31.18;97934.56;8127952;29;20231;-73
2022/07/27 19:06:02;;;;;;;9.20;2.20;;;;;;;25.44;31.69;97937.06;8127605;29;20243;-73
2022/07/27 19:10:06;;;;;;;14.17;1.90;;;;;;;25.42;31.94;97936.34;8127502;29;20438;-73
2022/07/27 19:14:09;;;;;;;6.73;1.93;;;;;;;25.41;32.06;97945.31;8127460;29;20240;-74